createdAt,value
2022-08-21T00:01:47.275Z,11.73
2022-08-21T00:04:20.931Z,12.35
2022-08-21T00:06:50.681Z,15.40
2022-08-21T00:09:18.620Z,16.17
2022-08-21T00:11:47.255Z,14.70
2022-08-21T00:14:18.035Z,11.80
2022-08-21T00:16:46.570Z,11.32
2022-08-21T00:19:14.728Z,14.45
2022-08-21T00:21:44.512Z,10.10
2022-08-21T00:24:13.784Z,12.10
2022-08-21T00:26:41.735Z,18.08
2022-08-21T00:29:10.457Z,15.57
2022-08-21T00:31:39.999Z,13.00
2022-08-21T00:34:08.532Z,15.38
2022-08-21T00:36:36.912Z,12.23
2022-08-21T00:39:06.572Z,14.02
2022-08-21T00:41:38.921Z,14.45
2022-08-21T00:44:08.962Z,14.55
2022-08-21T00:46:39.926Z,11.68
2022-08-21T00:49:09.048Z,13.98
2022-08-21T00:51:41.257Z,11.38
2022-08-21T00:54:18.858Z,13.13
2022-08-21T00:56:50.095Z,15.00
2022-08-21T00:59:21.527Z,13.90
2022-08-21T01:01:55.259Z,17.40
2022-08-21T01:04:25.155Z,12.98
2022-08-21T01:06:53.508Z,13.02
2022-08-21T01:09:21.742Z,19.45
2022-08-21T01:11:51.375Z,13.93
2022-08-21T01:14:20.823Z,16.02
2022-08-21T01:16:52.773Z,14.05
2022-08-21T01:19:23.709Z,14.70
2022-08-21T01:21:56.116Z,15.98
2022-08-21T01:24:24.770Z,15.23
2022-08-21T01:26:53.537Z,14.57
2022-08-21T01:29:32.101Z,15.68
2022-08-21T01:32:01.133Z,12.10
2022-08-21T01:34:29.271Z,11.23
2022-08-21T01:36:58.876Z,11.10
2022-08-21T01:39:27.009Z,16.92
2022-08-21T01:41:54.772Z,16.92
2022-08-21T01:44:23.626Z,14.43
2022-08-21T01:46:52.776Z,11.00
2022-08-21T01:49:21.971Z,12.35
2022-08-21T01:51:49.823Z,12.13
2022-08-21T01:54:19.552Z,17.92
2022-08-21T01:56:49.952Z,12.07
2022-08-21T01:59:18.196Z,12.82
2022-08-21T02:01:46.332Z,10.50
2022-08-21T02:04:14.937Z,12.15
2022-08-21T02:06:43.594Z,13.43
2022-08-21T02:09:13.041Z,13.15
2022-08-21T02:11:42.811Z,13.05
2022-08-21T02:14:12.480Z,16.25
2022-08-21T02:16:41.174Z,13.68
2022-08-21T02:19:09.859Z,11.73
2022-08-21T02:21:37.794Z,12.65
2022-08-21T02:24:06.733Z,14.75
2022-08-21T02:26:35.102Z,11.48
2022-08-21T02:29:05.811Z,13.68
2022-08-21T02:31:33.825Z,13.63
2022-08-21T02:34:02.416Z,15.35
2022-08-21T02:36:30.928Z,16.27
2022-08-21T02:38:58.753Z,17.48
2022-08-21T02:41:27.040Z,14.40
2022-08-21T02:43:55.337Z,16.25
2022-08-21T02:46:24.985Z,14.10
2022-08-21T02:48:52.825Z,15.60
2022-08-21T02:51:23.759Z,14.05
2022-08-21T02:53:52.953Z,14.98
2022-08-21T02:56:22.928Z,17.98
2022-08-21T02:58:56.475Z,15.90
2022-08-21T03:01:26.446Z,16.88
2022-08-21T03:03:54.637Z,16.13
2022-08-21T03:06:25.622Z,16.40
2022-08-21T03:08:53.707Z,15.38
2022-08-21T03:11:22.107Z,17.70
2022-08-21T03:13:50.096Z,14.15
2022-08-21T03:16:17.962Z,16.13
2022-08-21T03:18:47.559Z,16.65
2022-08-21T03:21:15.523Z,13.20
2022-08-21T03:23:44.120Z,12.25
2022-08-21T03:26:12.610Z,18.35
2022-08-21T03:28:41.472Z,16.67
2022-08-21T03:31:09.727Z,16.42
2022-08-21T03:33:37.642Z,16.38
2022-08-21T03:36:08.913Z,17.58
2022-08-21T03:38:38.273Z,16.38
2022-08-21T03:41:07.259Z,15.38
2022-08-21T03:43:37.961Z,13.88
2022-08-21T03:46:08.368Z,14.68
2022-08-21T03:48:38.355Z,14.68
2022-08-21T03:51:08.442Z,11.07
2022-08-21T03:53:37.513Z,13.05
2022-08-21T03:56:07.556Z,15.85
2022-08-21T03:58:35.540Z,13.57
2022-08-21T04:01:05.658Z,12.48
2022-08-21T04:03:34.612Z,15.02
2022-08-21T04:06:02.304Z,14.13
2022-08-21T04:08:32.103Z,15.77
2022-08-21T04:11:00.637Z,14.77
2022-08-21T04:13:30.054Z,18.02
2022-08-21T04:16:00.613Z,15.60
2022-08-21T04:18:28.644Z,24.75
2022-08-21T04:20:59.829Z,17.10
2022-08-21T04:23:28.302Z,15.88
2022-08-21T04:25:58.408Z,17.38
2022-08-21T04:28:30.430Z,15.85
2022-08-21T04:31:00.147Z,19.35
2022-08-21T04:33:28.113Z,13.88
2022-08-21T04:35:55.995Z,15.60
2022-08-21T04:38:24.441Z,15.40
2022-08-21T04:40:53.513Z,12.95
2022-08-21T04:43:24.490Z,14.05
2022-08-21T04:45:54.005Z,13.38
2022-08-21T04:48:26.771Z,11.48
2022-08-21T04:50:59.774Z,15.37
2022-08-21T04:53:32.947Z,12.75
2022-08-21T04:56:06.408Z,16.80
2022-08-21T05:01:07.657Z,12.25
2022-08-21T05:03:37.740Z,10.70
2022-08-21T05:06:10.941Z,10.48
2022-08-21T05:08:40.486Z,9.50
2022-08-21T05:11:08.945Z,14.93
2022-08-21T05:13:38.352Z,12.38
2022-08-21T05:16:06.868Z,11.75
2022-08-21T05:18:35.451Z,12.48
2022-08-21T05:21:03.318Z,8.88
2022-08-21T05:23:31.411Z,11.82
2022-08-21T05:25:59.550Z,10.80
2022-08-21T05:28:27.940Z,14.25
2022-08-21T05:30:57.845Z,9.98
2022-08-21T05:33:26.172Z,9.27
2022-08-21T05:35:56.823Z,8.18
2022-08-21T05:38:25.338Z,8.25
2022-08-21T05:40:53.349Z,9.32
2022-08-21T05:43:23.220Z,9.32
2022-08-21T05:45:51.352Z,10.95
2022-08-21T05:48:22.427Z,11.35
2022-08-21T05:50:53.815Z,13.57
2022-08-21T05:53:24.252Z,15.35
2022-08-21T05:55:53.356Z,14.65
2022-08-21T05:58:23.751Z,9.75
2022-08-21T06:00:53.954Z,11.82
2022-08-21T06:03:28.406Z,8.80
2022-08-21T06:05:57.468Z,7.22
2022-08-21T06:08:27.755Z,7.55
2022-08-21T06:10:57.840Z,8.68
2022-08-21T06:13:26.377Z,6.95
2022-08-21T06:16:04.643Z,10.05
2022-08-21T06:18:34.620Z,8.68
2022-08-21T06:21:02.700Z,11.27
2022-08-21T06:23:33.249Z,8.52
2022-08-21T06:26:01.934Z,9.55
2022-08-21T06:28:30.482Z,11.35
2022-08-21T06:30:58.452Z,7.35
2022-08-21T06:33:29.330Z,5.38
2022-08-21T06:36:02.006Z,12.38
2022-08-21T06:38:30.186Z,7.50
2022-08-21T06:40:59.481Z,10.38
2022-08-21T06:43:39.259Z,8.77
2022-08-21T06:46:09.274Z,8.98
2022-08-21T06:48:38.343Z,12.07
2022-08-21T06:51:07.750Z,8.85
2022-08-21T06:53:36.016Z,11.63
2022-08-21T06:56:05.354Z,8.32
2022-08-21T06:58:33.315Z,9.80
2022-08-21T07:01:03.776Z,10.57
2022-08-21T07:03:34.519Z,5.82
2022-08-21T07:06:02.834Z,8.38
2022-08-21T07:08:32.519Z,9.20
2022-08-21T07:11:03.397Z,7.60
2022-08-21T07:13:31.462Z,7.82
2022-08-21T07:16:03.924Z,8.45
2022-08-21T07:18:32.574Z,6.90
2022-08-21T07:21:02.435Z,9.55
2022-08-21T07:23:34.724Z,10.05
2022-08-21T07:26:03.348Z,7.90
2022-08-21T07:28:32.309Z,11.52
2022-08-21T07:31:02.089Z,10.35
2022-08-21T07:33:32.867Z,12.65
2022-08-21T07:36:01.463Z,8.60
2022-08-21T07:38:29.460Z,9.50
2022-08-21T07:41:02.434Z,9.50
2022-08-21T07:43:32.119Z,11.00
2022-08-21T07:46:00.142Z,8.25
2022-08-21T07:48:28.079Z,7.38
2022-08-21T07:50:57.397Z,10.65
2022-08-21T07:53:28.245Z,7.90
2022-08-21T07:56:00.531Z,14.15
2022-08-21T07:58:28.310Z,9.55
2022-08-21T08:00:56.764Z,9.57
2022-08-21T08:03:28.848Z,12.93
2022-08-21T08:05:57.844Z,10.38
2022-08-21T08:08:26.290Z,10.27
2022-08-21T08:10:55.865Z,6.80
2022-08-21T08:13:25.681Z,8.55
2022-08-21T08:15:53.812Z,9.63
2022-08-21T08:18:22.016Z,10.73
2022-08-21T08:20:49.998Z,12.85
2022-08-21T08:23:18.242Z,9.07
2022-08-21T08:25:46.549Z,6.55
2022-08-21T08:28:17.352Z,13.40
2022-08-21T08:30:47.706Z,10.25
2022-08-21T08:33:16.380Z,9.02
2022-08-21T08:35:47.196Z,12.20
2022-08-21T08:38:20.912Z,8.10
2022-08-21T08:41:03.544Z,9.40
2022-08-21T08:43:34.427Z,9.20
2022-08-21T08:46:12.418Z,9.82
2022-08-21T08:48:53.069Z,10.60
2022-08-21T08:51:26.623Z,7.97
2022-08-21T08:54:06.826Z,8.13
2022-08-21T08:56:36.431Z,6.07
2022-08-21T08:59:11.302Z,7.05
2022-08-21T09:01:43.421Z,12.02
2022-08-21T09:04:14.657Z,9.70
2022-08-21T09:07:10.100Z,7.85
2022-08-21T09:09:51.069Z,8.18
2022-08-21T09:12:35.321Z,15.07
2022-08-21T09:15:14.649Z,9.38
2022-08-21T09:18:01.954Z,7.05
2022-08-21T09:20:43.344Z,8.43
2022-08-21T09:23:24.411Z,10.93
2022-08-21T09:26:01.623Z,10.93
2022-08-21T09:28:34.424Z,8.50
2022-08-21T09:33:35.816Z,7.28
2022-08-21T09:36:05.875Z,7.55
2022-08-21T09:38:37.978Z,8.27
2022-08-21T09:41:09.695Z,9.30
2022-08-21T09:43:40.034Z,7.57
2022-08-21T09:46:11.903Z,7.72
2022-08-21T09:48:47.755Z,6.90
2022-08-21T09:51:19.705Z,7.80
2022-08-21T09:53:51.686Z,8.82
2022-08-21T09:56:50.886Z,7.50
2022-08-21T09:59:22.750Z,7.50
2022-08-21T10:01:53.198Z,6.50
2022-08-21T10:04:32.689Z,9.25
2022-08-21T10:07:10.443Z,8.90
2022-08-21T10:09:40.428Z,7.70
2022-08-21T10:12:19.746Z,8.68
2022-08-21T10:15:00.783Z,9.02
2022-08-21T10:17:36.170Z,8.07
2022-08-21T10:20:12.848Z,11.00
2022-08-21T10:22:58.265Z,6.72
2022-08-21T10:25:39.843Z,6.78
2022-08-21T10:28:34.730Z,8.45
2022-08-21T10:31:14.157Z,6.93
2022-08-21T10:33:56.145Z,8.93
2022-08-21T10:36:42.123Z,8.65
2022-08-21T10:39:35.216Z,6.72
2022-08-21T10:47:49.824Z,9.65
2022-08-21T10:50:32.635Z,6.60
2022-08-21T10:53:29.463Z,6.47
2022-08-21T10:56:02.316Z,9.63
2022-08-21T10:58:33.589Z,11.52
2022-08-21T11:01:10.663Z,9.65
2022-08-21T11:03:47.169Z,10.15
2022-08-21T11:06:21.719Z,9.38
2022-08-21T11:08:57.723Z,8.57
2022-08-21T11:11:35.718Z,14.80
2022-08-21T11:14:13.749Z,8.18
2022-08-21T11:16:44.158Z,7.97
2022-08-21T11:19:18.233Z,5.88
2022-08-21T11:21:51.558Z,7.90
2022-08-21T11:24:32.446Z,5.82
2022-08-21T11:27:07.786Z,6.22
2022-08-21T11:29:40.542Z,7.32
2022-08-21T11:32:30.325Z,7.57
2022-08-21T11:35:10.350Z,8.32
2022-08-21T11:37:52.554Z,4.25
2022-08-21T11:40:36.491Z,6.93
2022-08-21T11:43:15.003Z,6.05
2022-08-21T11:45:49.624Z,7.13
2022-08-21T11:48:35.412Z,8.52
2022-08-21T11:51:09.811Z,8.45
2022-08-21T11:53:47.401Z,6.65
2022-08-21T11:56:25.767Z,6.60
2022-08-21T11:58:59.454Z,6.82
2022-08-21T12:01:32.593Z,5.97
2022-08-21T12:04:04.893Z,6.20
2022-08-21T12:06:37.037Z,6.25
2022-08-21T12:09:08.233Z,8.50
2022-08-21T12:11:49.747Z,7.22
2022-08-21T12:14:21.153Z,5.57
2022-08-21T12:16:52.168Z,6.95
2022-08-21T12:19:36.990Z,8.85
2022-08-21T12:22:14.351Z,7.90
2022-08-21T12:24:45.713Z,7.93
2022-08-21T12:27:28.339Z,7.00
2022-08-21T12:30:00.807Z,5.68
2022-08-21T12:32:32.690Z,6.65
2022-08-21T12:35:08.917Z,8.23
2022-08-21T12:37:48.214Z,5.22
2022-08-21T12:40:23.921Z,6.85
2022-08-21T12:42:59.153Z,5.03
2022-08-21T12:45:33.269Z,6.93
2022-08-21T12:48:11.321Z,5.43
2022-08-21T12:50:47.007Z,4.93
2022-08-21T12:53:32.836Z,6.78
2022-08-21T12:56:04.774Z,6.85
2022-08-21T12:58:34.679Z,6.00
2022-08-21T13:01:07.235Z,8.10
2022-08-21T13:03:40.013Z,6.78
2022-08-21T13:06:17.341Z,6.85
2022-08-21T13:08:48.726Z,7.30
2022-08-21T13:11:32.497Z,6.00
2022-08-21T13:14:06.422Z,7.55
2022-08-21T13:16:36.413Z,6.32
2022-08-21T13:19:09.664Z,6.65
2022-08-21T13:21:43.464Z,4.70
2022-08-21T13:24:41.310Z,7.95
2022-08-21T13:27:19.859Z,5.30
2022-08-21T13:29:52.177Z,6.05
2022-08-21T13:32:28.559Z,8.43
2022-08-21T13:34:57.003Z,8.05
2022-08-21T13:37:29.309Z,6.32
2022-08-21T13:40:00.081Z,8.40
2022-08-21T13:42:28.256Z,4.90
2022-08-21T13:44:57.504Z,5.47
2022-08-21T13:47:25.517Z,6.53
2022-08-21T13:49:59.176Z,6.70
2022-08-21T13:52:31.549Z,7.35
2022-08-21T13:55:03.553Z,4.65
2022-08-21T13:57:33.831Z,4.65
2022-08-21T14:00:19.709Z,7.10
2022-08-21T14:02:52.610Z,5.30
2022-08-21T14:05:24.071Z,12.13
2022-08-21T14:08:00.011Z,5.65
2022-08-21T14:10:29.096Z,8.40
2022-08-21T14:13:01.439Z,7.03
2022-08-21T14:15:32.703Z,4.63
2022-08-21T14:18:12.198Z,7.00
2022-08-21T14:20:40.439Z,5.43
2022-08-21T14:23:08.381Z,4.63
2022-08-21T14:25:43.986Z,6.13
2022-08-21T14:28:21.520Z,5.72
2022-08-21T14:30:51.672Z,5.90
2022-08-21T14:33:27.286Z,5.40
2022-08-21T14:35:55.165Z,5.47
2022-08-21T14:38:26.613Z,3.97
2022-08-21T14:40:57.803Z,5.10
2022-08-21T14:43:28.626Z,5.30
2022-08-21T14:45:58.506Z,4.70
2022-08-21T14:48:26.817Z,5.43
2022-08-21T14:51:00.254Z,4.80
2022-08-21T14:53:28.629Z,4.35
2022-08-21T14:56:11.743Z,7.35
2022-08-21T14:58:43.299Z,7.82
2022-08-21T15:01:15.856Z,4.18
2022-08-21T15:03:44.216Z,4.07
2022-08-21T15:06:13.001Z,5.10
2022-08-21T15:08:41.306Z,7.03
2022-08-21T15:11:18.629Z,7.93
2022-08-21T15:14:05.791Z,3.03
2022-08-21T15:16:37.692Z,7.13
2022-08-21T15:19:06.067Z,5.35
2022-08-21T15:21:37.114Z,4.60
2022-08-21T15:24:05.693Z,5.75
2022-08-21T15:26:35.093Z,7.32
2022-08-21T15:29:06.793Z,6.10
2022-08-21T15:31:37.791Z,4.20
2022-08-21T15:34:05.755Z,4.82
2022-08-21T15:36:34.130Z,4.28
2022-08-21T15:39:02.439Z,6.32
2022-08-21T15:41:31.700Z,4.38
2022-08-21T15:43:59.916Z,5.20
2022-08-21T15:46:28.291Z,4.78
2022-08-21T15:48:59.995Z,3.92
2022-08-21T15:51:28.750Z,8.27
2022-08-21T15:53:56.926Z,6.10
2022-08-21T15:56:28.928Z,5.35
2022-08-21T15:59:02.625Z,4.70
2022-08-21T16:01:36.152Z,4.90
2022-08-21T16:04:20.798Z,4.50
2022-08-21T16:06:53.417Z,6.47
2022-08-21T16:09:24.377Z,5.82
2022-08-21T16:11:54.532Z,6.88
2022-08-21T16:14:22.743Z,5.80
2022-08-21T16:16:51.971Z,5.97
2022-08-21T16:19:24.059Z,9.10
2022-08-21T16:21:52.964Z,4.35
2022-08-21T16:24:21.247Z,5.38
2022-08-21T16:26:57.975Z,5.13
2022-08-21T16:29:31.631Z,5.35
2022-08-21T16:32:00.053Z,7.50
2022-08-21T16:34:29.529Z,5.43
2022-08-21T16:36:57.652Z,6.30
2022-08-21T16:39:25.798Z,4.05
2022-08-21T16:41:53.898Z,5.65
2022-08-21T16:44:23.331Z,4.38
2022-08-21T16:46:51.903Z,5.55
2022-08-21T16:49:20.333Z,9.70
2022-08-21T16:51:50.004Z,5.95
2022-08-21T16:54:17.973Z,4.22
2022-08-21T16:56:47.956Z,4.13
2022-08-21T16:59:17.515Z,8.75
2022-08-21T17:01:47.036Z,7.68
2022-08-21T17:04:15.586Z,7.15
2022-08-21T17:06:44.099Z,7.40
2022-08-21T17:09:13.682Z,5.43
2022-08-21T17:11:44.150Z,6.70
2022-08-21T17:14:15.646Z,5.90
2022-08-21T17:16:46.745Z,5.85
2022-08-21T17:19:16.152Z,6.15
2022-08-21T17:21:45.041Z,7.00
2022-08-21T17:24:15.973Z,4.43
2022-08-21T17:26:45.013Z,4.57
2022-08-21T17:29:15.960Z,3.28
2022-08-21T17:31:47.064Z,5.32
2022-08-21T17:34:15.963Z,4.40
2022-08-21T17:36:44.139Z,5.15
2022-08-21T17:39:14.870Z,6.80
2022-08-21T17:41:56.338Z,5.40
2022-08-21T17:44:26.630Z,4.30
2022-08-21T17:46:54.773Z,5.68
2022-08-21T17:49:22.996Z,7.15
2022-08-21T17:51:51.746Z,5.95
2022-08-21T17:54:20.479Z,6.88
2022-08-21T17:56:49.137Z,8.82
2022-08-21T17:59:18.840Z,7.72
2022-08-21T18:01:49.168Z,9.45
2022-08-21T18:04:18.547Z,5.70
2022-08-21T18:06:48.262Z,7.43
2022-08-21T18:09:18.815Z,4.07
2022-08-21T18:11:47.300Z,5.20
2022-08-21T18:14:16.614Z,8.93
2022-08-21T18:16:47.050Z,6.35
2022-08-21T18:19:23.747Z,6.97
2022-08-21T18:21:52.822Z,4.03
2022-08-21T18:24:21.962Z,5.80
2022-08-21T18:26:51.455Z,10.07
2022-08-21T18:29:23.190Z,6.10
2022-08-21T18:31:53.128Z,5.43
2022-08-21T18:34:29.316Z,10.02
2022-08-21T18:36:58.837Z,7.72
2022-08-21T18:39:37.387Z,5.18
2022-08-21T18:42:11.228Z,12.10
2022-08-21T18:47:14.871Z,5.78
2022-08-21T18:49:43.192Z,8.60
2022-08-21T18:52:20.494Z,8.68
2022-08-21T18:57:40.704Z,8.52
2022-08-21T19:00:12.534Z,10.48
2022-08-21T19:02:44.285Z,5.65
2022-08-21T19:05:16.153Z,9.25
2022-08-21T19:07:46.918Z,13.70
2022-08-21T19:10:28.830Z,10.07
2022-08-21T19:12:59.817Z,8.40
2022-08-21T19:15:29.790Z,10.93
2022-08-21T19:18:01.158Z,9.07
2022-08-21T19:20:36.490Z,9.10
2022-08-21T19:23:07.193Z,6.60
2022-08-21T19:25:37.644Z,6.97
2022-08-21T19:28:14.240Z,7.70
2022-08-21T19:30:52.897Z,12.23
2022-08-21T19:33:27.486Z,8.98
2022-08-21T19:35:57.472Z,6.10
2022-08-21T19:38:25.534Z,5.97
2022-08-21T19:40:54.277Z,7.78
2022-08-21T19:43:23.811Z,7.25
2022-08-21T19:45:55.938Z,8.00
2022-08-21T19:48:26.678Z,10.88
2022-08-21T19:50:55.432Z,9.80
2022-08-21T19:53:24.188Z,7.80
2022-08-21T19:55:54.188Z,8.18
2022-08-21T19:58:34.655Z,8.52
2022-08-21T20:01:03.365Z,7.15
2022-08-21T20:03:34.019Z,10.30
2022-08-21T20:06:02.787Z,8.95
2022-08-21T20:08:32.200Z,5.68
2022-08-21T20:11:04.198Z,7.72
2022-08-21T20:13:34.079Z,8.68
2022-08-21T20:16:03.557Z,9.50
2022-08-21T20:18:35.447Z,7.15
2022-08-21T20:21:04.961Z,9.05
2022-08-21T20:23:34.255Z,6.35
2022-08-21T20:26:02.956Z,9.63
2022-08-21T20:28:36.567Z,6.53
2022-08-21T20:33:39.803Z,7.03
2022-08-21T20:36:08.051Z,9.25
2022-08-21T20:38:37.554Z,8.18
2022-08-21T20:41:17.978Z,13.60
2022-08-21T20:43:49.465Z,8.52
2022-08-21T20:46:21.772Z,6.30
2022-08-21T20:48:51.357Z,5.80
2022-08-21T20:51:25.276Z,5.43
2022-08-21T20:54:04.268Z,9.57
2022-08-21T20:56:39.569Z,6.43
2022-08-21T20:59:16.591Z,5.18
2022-08-21T21:01:47.638Z,5.32
2022-08-21T21:04:36.410Z,9.15
2022-08-21T21:10:00.203Z,4.95
2022-08-21T21:12:36.259Z,6.22
2022-08-21T21:15:14.188Z,4.97
2022-08-21T21:17:47.678Z,5.95
2022-08-21T21:20:25.061Z,4.80
2022-08-21T21:22:58.951Z,6.80
2022-08-21T21:25:39.866Z,4.93
2022-08-21T21:28:32.018Z,7.18
2022-08-21T21:31:03.982Z,6.20
2022-08-21T21:33:32.481Z,7.30
2022-08-21T21:36:23.429Z,13.88
2022-08-21T21:38:59.044Z,18.80
2022-08-21T21:41:34.495Z,8.45
2022-08-21T21:44:12.845Z,7.95
2022-08-21T21:46:50.601Z,6.13
2022-08-21T21:49:44.631Z,14.55
2022-08-21T21:52:35.997Z,5.28
2022-08-21T21:55:23.702Z,6.35
2022-08-21T21:58:24.149Z,5.65
2022-08-21T22:01:01.575Z,4.80
2022-08-21T22:03:39.248Z,4.03
2022-08-21T22:06:13.521Z,4.97
2022-08-21T22:08:51.012Z,5.22
2022-08-21T22:11:29.343Z,4.45
2022-08-21T22:14:05.453Z,4.15
2022-08-21T22:16:37.183Z,4.15
2022-08-21T22:19:14.877Z,3.45
2022-08-21T22:21:50.330Z,11.82
2022-08-21T22:24:32.065Z,5.72
2022-08-21T22:27:05.618Z,8.65
2022-08-21T22:32:13.694Z,3.63
2022-08-21T22:34:42.010Z,3.78
2022-08-21T22:37:12.943Z,7.60
2022-08-21T22:39:45.648Z,6.68
2022-08-21T22:42:21.038Z,2.08
2022-08-21T22:44:53.076Z,5.93
2022-08-21T22:47:23.445Z,5.45
2022-08-21T22:49:54.285Z,6.35
2022-08-21T22:52:26.707Z,3.60
2022-08-21T22:57:47.973Z,3.50
2022-08-21T23:00:38.905Z,4.45
2022-08-21T23:03:16.435Z,3.92
2022-08-21T23:05:46.309Z,4.20
2022-08-21T23:08:25.413Z,3.65
2022-08-21T23:11:01.289Z,5.50
2022-08-21T23:13:38.874Z,4.93
2022-08-21T23:16:28.368Z,4.93
2022-08-21T23:19:08.427Z,3.60
2022-08-21T23:21:48.738Z,4.57
2022-08-21T23:24:49.897Z,4.22
2022-08-21T23:27:32.577Z,5.38
2022-08-21T23:30:07.876Z,4.10
2022-08-21T23:33:00.415Z,3.38
2022-08-21T23:35:51.131Z,6.90
2022-08-21T23:38:30.606Z,2.85
2022-08-21T23:41:11.073Z,9.45
2022-08-21T23:43:49.653Z,3.90
2022-08-21T23:46:35.464Z,4.90
2022-08-21T23:49:17.768Z,6.97
2022-08-21T23:51:56.896Z,5.55
2022-08-21T23:54:35.713Z,15.48
2022-08-21T23:57:14.915Z,3.22
